sensor_id;sensor_type;location;lat;lon;timestamp;temperature;humidity
12291;DHT22;6208;48.956;9.076;2024-03-25T00:01:42;7.90;99.90
12291;DHT22;6208;48.956;9.076;2024-03-25T00:04:26;7.20;99.90
12291;DHT22;6208;48.956;9.076;2024-03-25T00:07:10;7.20;99.90
12291;DHT22;6208;48.956;9.076;2024-03-25T00:09:54;7.50;99.90
12291;DHT22;6208;48.956;9.076;2024-03-25T00:12:38;7.20;99.90
12291;DHT22;6208;48.956;9.076;2024-03-25T00:15:23;8.00;99.90
12291;DHT22;6208;48.956;9.076;2024-03-25T00:18:10;7.20;99.90
12291;DHT22;6208;48.956;9.076;2024-03-25T00:20:55;7.10;99.90
12291;DHT22;6208;48.956;9.076;2024-03-25T00:23:39;8.20;99.90
12291;DHT22;6208;48.956;9.076;2024-03-25T00:26:23;7.30;99.90
12291;DHT22;6208;48.956;9.076;2024-03-25T00:29:07;7.10;99.90
12291;DHT22;6208;48.956;9.076;2024-03-25T00:31:52;7.10;99.90
12291;DHT22;6208;48.956;9.076;2024-03-25T00:34:36;7.10;99.90
12291;DHT22;6208;48.956;9.076;2024-03-25T00:37:20;7.10;99.90
12291;DHT22;6208;48.956;9.076;2024-03-25T00:40:06;7.40;99.90
12291;DHT22;6208;48.956;9.076;2024-03-25T00:42:51;7.00;99.90
12291;DHT22;6208;48.956;9.076;2024-03-25T00:45:36;7.30;99.90
12291;DHT22;6208;48.956;9.076;2024-03-25T00:48:21;9.40;99.90
12291;DHT22;6208;48.956;9.076;2024-03-25T00:51:05;7.00;99.90
12291;DHT22;6208;48.956;9.076;2024-03-25T00:53:49;7.00;99.90
12291;DHT22;6208;48.956;9.076;2024-03-25T00:56:34;7.00;99.90
12291;DHT22;6208;48.956;9.076;2024-03-25T00:59:18;7.00;99.90
12291;DHT22;6208;48.956;9.076;2024-03-25T01:02:02;7.00;99.90
12291;DHT22;6208;48.956;9.076;2024-03-25T01:04:46;8.00;99.90
12291;DHT22;6208;48.956;9.076;2024-03-25T01:07:30;7.00;99.90
12291;DHT22;6208;48.956;9.076;2024-03-25T01:10:15;7.00;99.90
12291;DHT22;6208;48.956;9.076;2024-03-25T01:13:00;6.90;99.90
12291;DHT22;6208;48.956;9.076;2024-03-25T01:15:44;7.00;99.90
12291;DHT22;6208;48.956;9.076;2024-03-25T01:18:28;9.30;99.90
12291;DHT22;6208;48.956;9.076;2024-03-25T01:21:12;7.10;99.90
12291;DHT22;6208;48.956;9.076;2024-03-25T01:23:56;7.00;99.90
12291;DHT22;6208;48.956;9.076;2024-03-25T01:26:40;7.20;99.90
12291;DHT22;6208;48.956;9.076;2024-03-25T01:29:25;7.10;99.90
12291;DHT22;6208;48.956;9.076;2024-03-25T01:32:09;7.00;99.90
12291;DHT22;6208;48.956;9.076;2024-03-25T01:34:53;8.70;99.90
12291;DHT22;6208;48.956;9.076;2024-03-25T01:37:37;7.60;99.90
12291;DHT22;6208;48.956;9.076;2024-03-25T01:40:22;7.00;99.90
12291;DHT22;6208;48.956;9.076;2024-03-25T01:43:06;7.00;99.90
12291;DHT22;6208;48.956;9.076;2024-03-25T01:45:51;7.00;99.90
12291;DHT22;6208;48.956;9.076;2024-03-25T01:48:37;7.00;99.90
12291;DHT22;6208;48.956;9.076;2024-03-25T01:51:22;7.70;99.90
12291;DHT22;6208;48.956;9.076;2024-03-25T01:54:08;7.00;99.90
12291;DHT22;6208;48.956;9.076;2024-03-25T01:56:52;6.90;99.90
12291;DHT22;6208;48.956;9.076;2024-03-25T01:59:39;7.20;99.90
12291;DHT22;6208;48.956;9.076;2024-03-25T02:02:23;6.90;99.90
12291;DHT22;6208;48.956;9.076;2024-03-25T02:05:08;6.90;99.90
12291;DHT22;6208;48.956;9.076;2024-03-25T02:07:53;6.80;99.90
12291;DHT22;6208;48.956;9.076;2024-03-25T02:10:39;6.80;99.90
12291;DHT22;6208;48.956;9.076;2024-03-25T02:13:22;6.80;99.90
12291;DHT22;6208;48.956;9.076;2024-03-25T02:16:07;6.80;99.90
12291;DHT22;6208;48.956;9.076;2024-03-25T02:18:51;7.20;99.90
12291;DHT22;6208;48.956;9.076;2024-03-25T02:21:35;6.80;99.90
12291;DHT22;6208;48.956;9.076;2024-03-25T02:24:20;6.80;99.90
12291;DHT22;6208;48.956;9.076;2024-03-25T02:27:07;7.10;99.90
12291;DHT22;6208;48.956;9.076;2024-03-25T02:29:52;6.80;99.90
12291;DHT22;6208;48.956;9.076;2024-03-25T02:32:36;6.80;99.90
12291;DHT22;6208;48.956;9.076;2024-03-25T02:35:21;6.80;99.90
12291;DHT22;6208;48.956;9.076;2024-03-25T02:38:07;6.80;99.90
12291;DHT22;6208;48.956;9.076;2024-03-25T02:40:52;7.20;99.90
12291;DHT22;6208;48.956;9.076;2024-03-25T02:43:36;6.80;99.90
12291;DHT22;6208;48.956;9.076;2024-03-25T02:46:20;6.80;99.90
12291;DHT22;6208;48.956;9.076;2024-03-25T02:49:04;6.70;99.90
12291;DHT22;6208;48.956;9.076;2024-03-25T02:51:48;6.80;99.90
12291;DHT22;6208;48.956;9.076;2024-03-25T02:54:32;6.80;99.90
12291;DHT22;6208;48.956;9.076;2024-03-25T02:57:16;6.80;99.90
12291;DHT22;6208;48.956;9.076;2024-03-25T03:00:00;6.80;99.90
12291;DHT22;6208;48.956;9.076;2024-03-25T03:02:44;6.70;99.90
12291;DHT22;6208;48.956;9.076;2024-03-25T03:05:28;6.80;99.90
12291;DHT22;6208;48.956;9.076;2024-03-25T03:08:12;6.80;99.90
12291;DHT22;6208;48.956;9.076;2024-03-25T03:10:56;8.00;99.90
12291;DHT22;6208;48.956;9.076;2024-03-25T03:13:40;7.90;99.90
12291;DHT22;6208;48.956;9.076;2024-03-25T03:16:24;6.70;99.90
12291;DHT22;6208;48.956;9.076;2024-03-25T03:19:08;6.70;99.90
12291;DHT22;6208;48.956;9.076;2024-03-25T03:21:53;6.70;99.90
12291;DHT22;6208;48.956;9.076;2024-03-25T03:24:37;6.70;99.90
12291;DHT22;6208;48.956;9.076;2024-03-25T03:27:21;7.00;99.90
12291;DHT22;6208;48.956;9.076;2024-03-25T03:30:06;6.80;99.90
12291;DHT22;6208;48.956;9.076;2024-03-25T03:32:50;6.80;99.90
12291;DHT22;6208;48.956;9.076;2024-03-25T03:35:34;7.50;99.90
12291;DHT22;6208;48.956;9.076;2024-03-25T03:38:19;6.80;99.90
12291;DHT22;6208;48.956;9.076;2024-03-25T03:41:03;6.80;99.90
12291;DHT22;6208;48.956;9.076;2024-03-25T03:43:47;6.90;99.90
12291;DHT22;6208;48.956;9.076;2024-03-25T03:46:31;7.50;99.90
12291;DHT22;6208;48.956;9.076;2024-03-25T03:49:15;6.80;99.90
12291;DHT22;6208;48.956;9.076;2024-03-25T03:51:59;6.80;99.90
12291;DHT22;6208;48.956;9.076;2024-03-25T03:54:43;6.80;99.90
12291;DHT22;6208;48.956;9.076;2024-03-25T04:00:12;6.80;99.90
12291;DHT22;6208;48.956;9.076;2024-03-25T04:02:58;6.80;99.90
12291;DHT22;6208;48.956;9.076;2024-03-25T04:05:42;7.40;99.90
12291;DHT22;6208;48.956;9.076;2024-03-25T04:08:27;7.20;99.90
12291;DHT22;6208;48.956;9.076;2024-03-25T04:11:12;6.70;99.90
12291;DHT22;6208;48.956;9.076;2024-03-25T04:13:56;9.30;99.90
12291;DHT22;6208;48.956;9.076;2024-03-25T04:16:40;7.30;99.90
12291;DHT22;6208;48.956;9.076;2024-03-25T04:19:24;6.70;99.90
12291;DHT22;6208;48.956;9.076;2024-03-25T04:22:09;6.70;99.90
12291;DHT22;6208;48.956;9.076;2024-03-25T04:24:53;8.50;99.90
12291;DHT22;6208;48.956;9.076;2024-03-25T04:27:38;7.90;99.90
12291;DHT22;6208;48.956;9.076;2024-03-25T04:30:23;7.20;99.90
12291;DHT22;6208;48.956;9.076;2024-03-25T04:33:07;6.80;99.90
12291;DHT22;6208;48.956;9.076;2024-03-25T04:35:52;6.70;99.90
12291;DHT22;6208;48.956;9.076;2024-03-25T04:38:36;8.60;99.90
12291;DHT22;6208;48.956;9.076;2024-03-25T04:41:20;6.70;99.90
12291;DHT22;6208;48.956;9.076;2024-03-25T04:44:05;6.60;99.90
12291;DHT22;6208;48.956;9.076;2024-03-25T04:46:49;6.70;99.90
12291;DHT22;6208;48.956;9.076;2024-03-25T04:49:33;6.60;99.90
12291;DHT22;6208;48.956;9.076;2024-03-25T04:52:17;8.70;99.90
12291;DHT22;6208;48.956;9.076;2024-03-25T04:55:01;6.60;99.90
12291;DHT22;6208;48.956;9.076;2024-03-25T04:57:46;6.60;99.90
12291;DHT22;6208;48.956;9.076;2024-03-25T05:00:30;6.60;99.90
12291;DHT22;6208;48.956;9.076;2024-03-25T05:03:14;6.60;99.90
12291;DHT22;6208;48.956;9.076;2024-03-25T05:05:58;8.50;99.90
12291;DHT22;6208;48.956;9.076;2024-03-25T05:08:43;6.50;99.90
12291;DHT22;6208;48.956;9.076;2024-03-25T05:11:27;6.50;99.90
12291;DHT22;6208;48.956;9.076;2024-03-25T05:14:10;6.60;99.90
12291;DHT22;6208;48.956;9.076;2024-03-25T05:16:54;6.70;99.90
12291;DHT22;6208;48.956;9.076;2024-03-25T05:19:40;6.40;99.90
12291;DHT22;6208;48.956;9.076;2024-03-25T05:22:24;6.50;99.90
12291;DHT22;6208;48.956;9.076;2024-03-25T05:25:08;6.40;99.90
12291;DHT22;6208;48.956;9.076;2024-03-25T05:27:52;6.50;99.90
12291;DHT22;6208;48.956;9.076;2024-03-25T05:30:36;6.40;99.90
12291;DHT22;6208;48.956;9.076;2024-03-25T05:33:20;6.40;99.90
12291;DHT22;6208;48.956;9.076;2024-03-25T05:36:04;6.40;99.90
12291;DHT22;6208;48.956;9.076;2024-03-25T05:38:49;6.40;99.90
12291;DHT22;6208;48.956;9.076;2024-03-25T05:41:33;6.40;99.90
12291;DHT22;6208;48.956;9.076;2024-03-25T05:44:17;6.30;99.90
12291;DHT22;6208;48.956;9.076;2024-03-25T05:47:01;6.20;99.90
12291;DHT22;6208;48.956;9.076;2024-03-25T05:49:47;6.20;99.90
12291;DHT22;6208;48.956;9.076;2024-03-25T05:52:31;8.10;99.90
12291;DHT22;6208;48.956;9.076;2024-03-25T05:55:17;6.10;99.90
12291;DHT22;6208;48.956;9.076;2024-03-25T05:58:01;7.20;99.90
12291;DHT22;6208;48.956;9.076;2024-03-25T06:00:48;6.00;99.90
12291;DHT22;6208;48.956;9.076;2024-03-25T06:03:32;6.00;99.90
12291;DHT22;6208;48.956;9.076;2024-03-25T06:06:16;5.90;99.90
12291;DHT22;6208;48.956;9.076;2024-03-25T06:09:01;6.10;99.90
12291;DHT22;6208;48.956;9.076;2024-03-25T06:11:45;5.90;99.90
12291;DHT22;6208;48.956;9.076;2024-03-25T06:14:29;8.70;99.90
12291;DHT22;6208;48.956;9.076;2024-03-25T06:17:13;6.90;99.90
12291;DHT22;6208;48.956;9.076;2024-03-25T06:19:58;6.00;99.90
12291;DHT22;6208;48.956;9.076;2024-03-25T06:22:42;9.20;99.90
12291;DHT22;6208;48.956;9.076;2024-03-25T06:25:26;6.70;99.90
12291;DHT22;6208;48.956;9.076;2024-03-25T06:28:10;6.30;99.90
12291;DHT22;6208;48.956;9.076;2024-03-25T06:30:54;6.30;99.90
12291;DHT22;6208;48.956;9.076;2024-03-25T06:33:57;6.30;99.90
12291;DHT22;6208;48.956;9.076;2024-03-25T06:37:02;6.40;99.90
12291;DHT22;6208;48.956;9.076;2024-03-25T06:39:48;6.50;99.90
12291;DHT22;6208;48.956;9.076;2024-03-25T06:42:32;6.60;99.90
12291;DHT22;6208;48.956;9.076;2024-03-25T06:45:16;7.20;99.90
12291;DHT22;6208;48.956;9.076;2024-03-25T06:48:01;6.70;99.90
12291;DHT22;6208;48.956;9.076;2024-03-25T06:50:56;6.70;99.90
12291;DHT22;6208;48.956;9.076;2024-03-25T06:53:40;6.80;99.90
12291;DHT22;6208;48.956;9.076;2024-03-25T06:56:24;6.90;99.90
12291;DHT22;6208;48.956;9.076;2024-03-25T06:59:09;7.00;99.90
12291;DHT22;6208;48.956;9.076;2024-03-25T07:01:53;8.70;99.90
12291;DHT22;6208;48.956;9.076;2024-03-25T07:04:37;6.50;99.90
12291;DHT22;6208;48.956;9.076;2024-03-25T07:07:21;9.70;99.90
12291;DHT22;6208;48.956;9.076;2024-03-25T07:10:06;8.00;99.90
12291;DHT22;6208;48.956;9.076;2024-03-25T07:12:50;7.30;99.90
12291;DHT22;6208;48.956;9.076;2024-03-25T07:15:34;7.30;99.90
12291;DHT22;6208;48.956;9.076;2024-03-25T07:18:18;7.40;99.90
12291;DHT22;6208;48.956;9.076;2024-03-25T07:21:03;7.40;99.90
12291;DHT22;6208;48.956;9.076;2024-03-25T07:23:47;7.50;99.90
12291;DHT22;6208;48.956;9.076;2024-03-25T07:26:32;7.60;99.90
12291;DHT22;6208;48.956;9.076;2024-03-25T07:29:16;7.70;99.90
12291;DHT22;6208;48.956;9.076;2024-03-25T07:32:00;7.80;99.90
12291;DHT22;6208;48.956;9.076;2024-03-25T07:34:44;7.80;99.90
12291;DHT22;6208;48.956;9.076;2024-03-25T07:37:30;7.90;99.90
12291;DHT22;6208;48.956;9.076;2024-03-25T07:40:15;8.00;99.90
12291;DHT22;6208;48.956;9.076;2024-03-25T07:42:59;8.00;99.90
12291;DHT22;6208;48.956;9.076;2024-03-25T07:45:43;8.10;99.90
12291;DHT22;6208;48.956;9.076;2024-03-25T07:48:27;8.10;99.90
12291;DHT22;6208;48.956;9.076;2024-03-25T07:51:10;8.10;99.90
12291;DHT22;6208;48.956;9.076;2024-03-25T07:53:55;8.20;99.90
12291;DHT22;6208;48.956;9.076;2024-03-25T07:56:39;8.20;99.90
12291;DHT22;6208;48.956;9.076;2024-03-25T07:59:23;8.40;99.90
12291;DHT22;6208;48.956;9.076;2024-03-25T08:02:07;8.30;99.90
12291;DHT22;6208;48.956;9.076;2024-03-25T08:04:51;10.60;99.90
12291;DHT22;6208;48.956;9.076;2024-03-25T08:07:35;8.40;99.90
12291;DHT22;6208;48.956;9.076;2024-03-25T08:10:19;8.60;99.90
12291;DHT22;6208;48.956;9.076;2024-03-25T08:13:03;8.40;99.90
12291;DHT22;6208;48.956;9.076;2024-03-25T08:15:48;8.50;99.90
12291;DHT22;6208;48.956;9.076;2024-03-25T08:18:32;8.40;99.90
12291;DHT22;6208;48.956;9.076;2024-03-25T08:21:17;8.50;99.90
12291;DHT22;6208;48.956;9.076;2024-03-25T08:24:02;11.40;99.90
12291;DHT22;6208;48.956;9.076;2024-03-25T08:26:46;8.70;99.90
12291;DHT22;6208;48.956;9.076;2024-03-25T08:29:31;8.70;99.90
12291;DHT22;6208;48.956;9.076;2024-03-25T08:32:15;10.20;99.90
12291;DHT22;6208;48.956;9.076;2024-03-25T08:34:59;6.10;99.90
12291;DHT22;6208;48.956;9.076;2024-03-25T08:37:43;9.00;99.90
12291;DHT22;6208;48.956;9.076;2024-03-25T08:40:27;9.00;99.90
12291;DHT22;6208;48.956;9.076;2024-03-25T08:43:13;9.30;99.90
12291;DHT22;6208;48.956;9.076;2024-03-25T08:45:58;9.30;99.90
12291;DHT22;6208;48.956;9.076;2024-03-25T08:48:42;9.40;99.90
12291;DHT22;6208;48.956;9.076;2024-03-25T08:51:26;9.50;99.90
12291;DHT22;6208;48.956;9.076;2024-03-25T08:54:10;9.60;99.90
12291;DHT22;6208;48.956;9.076;2024-03-25T08:56:54;9.70;99.90
12291;DHT22;6208;48.956;9.076;2024-03-25T08:59:38;9.70;99.90
12291;DHT22;6208;48.956;9.076;2024-03-25T09:02:22;9.80;99.90
12291;DHT22;6208;48.956;9.076;2024-03-25T09:05:07;9.90;99.90
12291;DHT22;6208;48.956;9.076;2024-03-25T09:07:55;10.10;99.90
12291;DHT22;6208;48.956;9.076;2024-03-25T09:10:39;10.20;99.90
12291;DHT22;6208;48.956;9.076;2024-03-25T09:13:42;10.40;99.90
12291;DHT22;6208;48.956;9.076;2024-03-25T09:16:26;10.40;99.90
12291;DHT22;6208;48.956;9.076;2024-03-25T09:19:10;10.60;99.90
12291;DHT22;6208;48.956;9.076;2024-03-25T09:21:55;10.70;99.90
12291;DHT22;6208;48.956;9.076;2024-03-25T09:24:39;10.70;99.90
12291;DHT22;6208;48.956;9.076;2024-03-25T09:27:23;10.80;99.90
12291;DHT22;6208;48.956;9.076;2024-03-25T09:30:08;11.10;99.90
12291;DHT22;6208;48.956;9.076;2024-03-25T09:32:53;11.10;99.20
12291;DHT22;6208;48.956;9.076;2024-03-25T09:35:37;11.20;99.90
12291;DHT22;6208;48.956;9.076;2024-03-25T09:38:21;11.90;99.90
12291;DHT22;6208;48.956;9.076;2024-03-25T09:41:05;11.30;98.90
12291;DHT22;6208;48.956;9.076;2024-03-25T09:43:54;11.50;99.00
12291;DHT22;6208;48.956;9.076;2024-03-25T09:46:38;11.90;99.90
12291;DHT22;6208;48.956;9.076;2024-03-25T09:49:23;11.70;99.90
12291;DHT22;6208;48.956;9.076;2024-03-25T09:52:09;11.70;98.10
12291;DHT22;6208;48.956;9.076;2024-03-25T09:54:53;11.90;98.20
12291;DHT22;6208;48.956;9.076;2024-03-25T09:57:37;11.80;96.00
12291;DHT22;6208;48.956;9.076;2024-03-25T10:00:22;11.80;98.00
12291;DHT22;6208;48.956;9.076;2024-03-25T10:03:08;11.90;98.10
12291;DHT22;6208;48.956;9.076;2024-03-25T10:05:52;12.00;98.60
12291;DHT22;6208;48.956;9.076;2024-03-25T10:08:37;12.10;96.90
12291;DHT22;6208;48.956;9.076;2024-03-25T10:11:21;11.90;96.90
12291;DHT22;6208;48.956;9.076;2024-03-25T10:14:06;12.60;97.60
12291;DHT22;6208;48.956;9.076;2024-03-25T10:16:50;12.20;98.20
12291;DHT22;6208;48.956;9.076;2024-03-25T10:19:34;12.20;96.40
12291;DHT22;6208;48.956;9.076;2024-03-25T10:22:19;12.20;96.50
12291;DHT22;6208;48.956;9.076;2024-03-25T10:25:03;12.10;96.00
12291;DHT22;6208;48.956;9.076;2024-03-25T10:28:01;12.30;94.00
12291;DHT22;6208;48.956;9.076;2024-03-25T10:30:45;12.40;97.00
12291;DHT22;6208;48.956;9.076;2024-03-25T10:33:30;12.50;95.50
12291;DHT22;6208;48.956;9.076;2024-03-25T10:36:15;12.50;94.40
12291;DHT22;6208;48.956;9.076;2024-03-25T10:39:02;12.50;96.10
12291;DHT22;6208;48.956;9.076;2024-03-25T10:41:49;12.50;95.00
12291;DHT22;6208;48.956;9.076;2024-03-25T10:44:34;12.60;95.10
12291;DHT22;6208;48.956;9.076;2024-03-25T10:47:24;13.00;94.00
12291;DHT22;6208;48.956;9.076;2024-03-25T10:50:12;13.10;92.80
12291;DHT22;6208;48.956;9.076;2024-03-25T10:52:59;13.30;94.20
12291;DHT22;6208;48.956;9.076;2024-03-25T10:55:47;13.60;94.00
12291;DHT22;6208;48.956;9.076;2024-03-25T10:58:33;13.70;90.30
12291;DHT22;6208;48.956;9.076;2024-03-25T11:01:21;13.70;90.30
12291;DHT22;6208;48.956;9.076;2024-03-25T11:04:06;13.70;90.00
12291;DHT22;6208;48.956;9.076;2024-03-25T11:06:50;13.70;87.50
12291;DHT22;6208;48.956;9.076;2024-03-25T11:09:35;13.70;90.10
12291;DHT22;6208;48.956;9.076;2024-03-25T11:12:19;13.80;86.90
12291;DHT22;6208;48.956;9.076;2024-03-25T11:15:04;13.80;89.80
12291;DHT22;6208;48.956;9.076;2024-03-25T11:17:49;13.90;88.30
12291;DHT22;6208;48.956;9.076;2024-03-25T11:20:34;14.00;88.00
12291;DHT22;6208;48.956;9.076;2024-03-25T11:23:18;14.20;90.40
12291;DHT22;6208;48.956;9.076;2024-03-25T11:26:02;14.20;88.60
12291;DHT22;6208;48.956;9.076;2024-03-25T11:28:46;14.30;88.90
12291;DHT22;6208;48.956;9.076;2024-03-25T11:31:37;14.40;90.80
12291;DHT22;6208;48.956;9.076;2024-03-25T11:34:22;14.50;84.50
12291;DHT22;6208;48.956;9.076;2024-03-25T11:37:06;14.60;79.60
12291;DHT22;6208;48.956;9.076;2024-03-25T11:40:01;14.70;78.50
12291;DHT22;6208;48.956;9.076;2024-03-25T11:42:48;14.70;87.70
12291;DHT22;6208;48.956;9.076;2024-03-25T11:45:32;14.80;81.10
12291;DHT22;6208;48.956;9.076;2024-03-25T11:48:16;14.90;76.80
12291;DHT22;6208;48.956;9.076;2024-03-25T11:51:00;14.90;74.50
12291;DHT22;6208;48.956;9.076;2024-03-25T11:53:44;14.80;78.90
12291;DHT22;6208;48.956;9.076;2024-03-25T11:56:29;15.00;74.70
12291;DHT22;6208;48.956;9.076;2024-03-25T11:59:13;15.00;75.30
12291;DHT22;6208;48.956;9.076;2024-03-25T12:01:58;15.00;75.60
12291;DHT22;6208;48.956;9.076;2024-03-25T12:04:43;14.80;74.90
12291;DHT22;6208;48.956;9.076;2024-03-25T12:07:27;14.70;76.30
12291;DHT22;6208;48.956;9.076;2024-03-25T12:10:12;14.60;83.50
12291;DHT22;6208;48.956;9.076;2024-03-25T12:13:14;14.70;78.80
12291;DHT22;6208;48.956;9.076;2024-03-25T12:15:59;14.90;77.50
12291;DHT22;6208;48.956;9.076;2024-03-25T12:18:43;15.20;75.50
12291;DHT22;6208;48.956;9.076;2024-03-25T12:21:28;15.40;75.50
12291;DHT22;6208;48.956;9.076;2024-03-25T12:24:15;15.40;69.20
12291;DHT22;6208;48.956;9.076;2024-03-25T12:27:00;15.30;71.80
12291;DHT22;6208;48.956;9.076;2024-03-25T12:29:45;15.10;72.40
12291;DHT22;6208;48.956;9.076;2024-03-25T12:32:45;15.20;71.50
12291;DHT22;6208;48.956;9.076;2024-03-25T12:35:35;15.10;74.50
12291;DHT22;6208;48.956;9.076;2024-03-25T12:38:24;15.20;77.30
12291;DHT22;6208;48.956;9.076;2024-03-25T12:41:10;15.40;77.90
12291;DHT22;6208;48.956;9.076;2024-03-25T12:43:55;15.70;76.90
12291;DHT22;6208;48.956;9.076;2024-03-25T12:46:39;15.80;76.80
12291;DHT22;6208;48.956;9.076;2024-03-25T12:49:23;15.90;72.40
12291;DHT22;6208;48.956;9.076;2024-03-25T12:52:08;15.90;72.90
12291;DHT22;6208;48.956;9.076;2024-03-25T12:54:52;15.90;74.30
12291;DHT22;6208;48.956;9.076;2024-03-25T12:57:37;15.80;74.00
12291;DHT22;6208;48.956;9.076;2024-03-25T13:00:21;15.80;73.30
12291;DHT22;6208;48.956;9.076;2024-03-25T13:03:06;15.80;70.90
12291;DHT22;6208;48.956;9.076;2024-03-25T13:05:51;15.80;69.60
12291;DHT22;6208;48.956;9.076;2024-03-25T13:08:38;15.70;70.80
12291;DHT22;6208;48.956;9.076;2024-03-25T13:11:22;15.60;70.00
12291;DHT22;6208;48.956;9.076;2024-03-25T13:14:07;15.60;71.80
12291;DHT22;6208;48.956;9.076;2024-03-25T13:16:51;15.60;70.80
12291;DHT22;6208;48.956;9.076;2024-03-25T13:19:35;15.80;69.90
12291;DHT22;6208;48.956;9.076;2024-03-25T13:22:19;15.80;71.30
12291;DHT22;6208;48.956;9.076;2024-03-25T13:25:04;16.00;72.30
12291;DHT22;6208;48.956;9.076;2024-03-25T13:27:49;16.00;68.50
12291;DHT22;6208;48.956;9.076;2024-03-25T13:30:33;16.00;68.00
12291;DHT22;6208;48.956;9.076;2024-03-25T13:33:17;16.00;68.50
12291;DHT22;6208;48.956;9.076;2024-03-25T13:36:03;16.10;69.60
12291;DHT22;6208;48.956;9.076;2024-03-25T13:38:47;16.10;75.40
12291;DHT22;6208;48.956;9.076;2024-03-25T13:41:31;16.20;66.50
12291;DHT22;6208;48.956;9.076;2024-03-25T13:44:15;16.10;67.60
12291;DHT22;6208;48.956;9.076;2024-03-25T13:46:59;16.10;67.10
12291;DHT22;6208;48.956;9.076;2024-03-25T13:49:43;16.20;64.80
12291;DHT22;6208;48.956;9.076;2024-03-25T13:52:28;16.30;75.40
12291;DHT22;6208;48.956;9.076;2024-03-25T13:55:12;16.30;67.40
12291;DHT22;6208;48.956;9.076;2024-03-25T13:57:56;16.30;65.50
12291;DHT22;6208;48.956;9.076;2024-03-25T14:00:40;16.40;68.20
12291;DHT22;6208;48.956;9.076;2024-03-25T14:03:25;16.50;67.60
12291;DHT22;6208;48.956;9.076;2024-03-25T14:06:09;16.70;63.40
12291;DHT22;6208;48.956;9.076;2024-03-25T14:08:53;16.80;64.10
12291;DHT22;6208;48.956;9.076;2024-03-25T14:11:37;16.90;62.50
12291;DHT22;6208;48.956;9.076;2024-03-25T14:14:21;16.80;63.70
12291;DHT22;6208;48.956;9.076;2024-03-25T14:17:05;17.30;66.30
12291;DHT22;6208;48.956;9.076;2024-03-25T14:19:53;16.70;64.30
12291;DHT22;6208;48.956;9.076;2024-03-25T14:22:39;16.70;64.70
12291;DHT22;6208;48.956;9.076;2024-03-25T14:25:23;16.80;65.00
12291;DHT22;6208;48.956;9.076;2024-03-25T14:28:07;16.90;65.40
12291;DHT22;6208;48.956;9.076;2024-03-25T14:30:51;16.90;63.00
12291;DHT22;6208;48.956;9.076;2024-03-25T14:33:36;16.80;61.60
12291;DHT22;6208;48.956;9.076;2024-03-25T14:36:20;16.40;61.70
12291;DHT22;6208;48.956;9.076;2024-03-25T14:39:03;17.00;60.90
12291;DHT22;6208;48.956;9.076;2024-03-25T14:41:49;17.10;61.00
12291;DHT22;6208;48.956;9.076;2024-03-25T14:44:33;17.30;63.10
12291;DHT22;6208;48.956;9.076;2024-03-25T14:47:17;17.40;62.00
12291;DHT22;6208;48.956;9.076;2024-03-25T14:50:01;17.50;60.60
12291;DHT22;6208;48.956;9.076;2024-03-25T14:52:45;17.60;59.50
12291;DHT22;6208;48.956;9.076;2024-03-25T14:55:30;17.60;62.40
12291;DHT22;6208;48.956;9.076;2024-03-25T14:58:14;17.60;60.10
12291;DHT22;6208;48.956;9.076;2024-03-25T15:00:59;17.70;59.60
12291;DHT22;6208;48.956;9.076;2024-03-25T15:03:43;17.70;58.80
12291;DHT22;6208;48.956;9.076;2024-03-25T15:06:27;17.50;56.20
12291;DHT22;6208;48.956;9.076;2024-03-25T15:09:11;17.40;57.10
12291;DHT22;6208;48.956;9.076;2024-03-25T15:11:56;17.40;57.10
12291;DHT22;6208;48.956;9.076;2024-03-25T15:14:40;17.20;56.00
12291;DHT22;6208;48.956;9.076;2024-03-25T15:17:24;17.10;57.50
12291;DHT22;6208;48.956;9.076;2024-03-25T15:20:09;17.10;57.20
12291;DHT22;6208;48.956;9.076;2024-03-25T15:22:53;17.20;58.80
12291;DHT22;6208;48.956;9.076;2024-03-25T15:25:37;17.40;57.60
12291;DHT22;6208;48.956;9.076;2024-03-25T15:28:22;17.40;56.70
12291;DHT22;6208;48.956;9.076;2024-03-25T15:31:06;17.20;56.60
12291;DHT22;6208;48.956;9.076;2024-03-25T15:33:50;17.20;56.00
12291;DHT22;6208;48.956;9.076;2024-03-25T15:36:34;17.10;56.50
12291;DHT22;6208;48.956;9.076;2024-03-25T15:39:18;17.00;56.80
12291;DHT22;6208;48.956;9.076;2024-03-25T15:42:03;17.00;58.50
12291;DHT22;6208;48.956;9.076;2024-03-25T15:44:49;17.00;56.90
12291;DHT22;6208;48.956;9.076;2024-03-25T15:47:34;16.80;56.50
12291;DHT22;6208;48.956;9.076;2024-03-25T15:50:18;16.70;58.70
12291;DHT22;6208;48.956;9.076;2024-03-25T15:53:02;16.70;57.60
12291;DHT22;6208;48.956;9.076;2024-03-25T15:55:46;16.70;57.80
12291;DHT22;6208;48.956;9.076;2024-03-25T15:58:31;16.70;57.30
12291;DHT22;6208;48.956;9.076;2024-03-25T16:01:15;16.40;57.10
12291;DHT22;6208;48.956;9.076;2024-03-25T16:03:59;16.40;58.20
12291;DHT22;6208;48.956;9.076;2024-03-25T16:06:43;16.20;58.20
12291;DHT22;6208;48.956;9.076;2024-03-25T16:09:30;16.00;60.50
12291;DHT22;6208;48.956;9.076;2024-03-25T16:12:14;15.80;60.00
12291;DHT22;6208;48.956;9.076;2024-03-25T16:14:59;15.60;60.10
12291;DHT22;6208;48.956;9.076;2024-03-25T16:17:44;15.60;58.00
12291;DHT22;6208;48.956;9.076;2024-03-25T16:20:31;15.40;59.00
12291;DHT22;6208;48.956;9.076;2024-03-25T16:23:16;15.30;58.60
12291;DHT22;6208;48.956;9.076;2024-03-25T16:26:00;15.10;58.00
12291;DHT22;6208;48.956;9.076;2024-03-25T16:28:44;14.70;62.70
12291;DHT22;6208;48.956;9.076;2024-03-25T16:31:28;14.50;62.40
12291;DHT22;6208;48.956;9.076;2024-03-25T16:34:12;14.00;75.40
12291;DHT22;6208;48.956;9.076;2024-03-25T16:36:56;14.00;66.10
12291;DHT22;6208;48.956;9.076;2024-03-25T16:39:40;13.80;62.70
12291;DHT22;6208;48.956;9.076;2024-03-25T16:42:24;13.70;61.60
12291;DHT22;6208;48.956;9.076;2024-03-25T16:45:09;13.50;60.70
12291;DHT22;6208;48.956;9.076;2024-03-25T16:47:53;13.30;61.80
12291;DHT22;6208;48.956;9.076;2024-03-25T16:50:37;13.20;63.20
12291;DHT22;6208;48.956;9.076;2024-03-25T16:53:21;13.10;65.10
12291;DHT22;6208;48.956;9.076;2024-03-25T16:56:06;13.00;66.70
12291;DHT22;6208;48.956;9.076;2024-03-25T16:58:51;12.80;67.10
12291;DHT22;6208;48.956;9.076;2024-03-25T17:01:35;12.70;70.00
12291;DHT22;6208;48.956;9.076;2024-03-25T17:04:19;13.00;68.00
12291;DHT22;6208;48.956;9.076;2024-03-25T17:07:03;12.30;77.50
12291;DHT22;6208;48.956;9.076;2024-03-25T17:09:47;12.40;68.30
12291;DHT22;6208;48.956;9.076;2024-03-25T17:12:33;12.30;70.60
12291;DHT22;6208;48.956;9.076;2024-03-25T17:15:19;12.20;71.30
12291;DHT22;6208;48.956;9.076;2024-03-25T17:18:10;12.20;83.20
12291;DHT22;6208;48.956;9.076;2024-03-25T17:20:58;12.10;73.00
12291;DHT22;6208;48.956;9.076;2024-03-25T17:23:45;12.10;71.00
12291;DHT22;6208;48.956;9.076;2024-03-25T17:26:29;12.00;70.40
12291;DHT22;6208;48.956;9.076;2024-03-25T17:29:13;12.00;71.60
12291;DHT22;6208;48.956;9.076;2024-03-25T17:31:57;11.80;82.30
12291;DHT22;6208;48.956;9.076;2024-03-25T17:34:42;11.60;84.40
12291;DHT22;6208;48.956;9.076;2024-03-25T17:37:26;11.70;74.10
12291;DHT22;6208;48.956;9.076;2024-03-25T17:40:10;11.70;74.00
12291;DHT22;6208;48.956;9.076;2024-03-25T17:42:54;11.60;72.80
12291;DHT22;6208;48.956;9.076;2024-03-25T17:45:39;11.50;89.70
12291;DHT22;6208;48.956;9.076;2024-03-25T17:48:24;11.40;89.10
12291;DHT22;6208;48.956;9.076;2024-03-25T17:51:08;11.20;85.40